Hovedside
METAR-TAF:

METAR-TAF

Lufthavner :

Son Sant Joan lufthavn

Palma de Mallorca, Spania

breddegrad: 39-33N, lengdegrad: 002-44E, høyde over havet: 4 m

Gjeldene værobservasjon

Denne rapporten ble laget for 23 minutter siden, klokken 11:00 UTC
Vind 10 kt fra Sør-sørvest, skiftende mellom Sør og Vest-sørvest
Temperatur 29°C
Luftfuktighet 45%
Trykk 1016 hPa
Sikt 10 km eller mer
Få skyer i en høyde av 3500 ft

METAR: LEPA 201100Z 21010KT 170V250 9999 FEW035 29/16 Q1016 NOSIG

Tid: 13:23 (11:23 UTC)

Varsel

Denne rapporten ble laget for 6 timer og 23 minutter siden, klokken 05:00 UTC
Varsel gyldig fra 20. klokken 06 UTC til 21. klokken 06 UTC
Vind 3 kt fra skiftende retning
Sikt 10 km eller mer
Få skyer i en høyde av 2000 ft
Blir
fra 20. klokken 09 UTC til 20. klokken 11 UTC
Vind 10 kt fra Sørvest
Blir
fra 20. klokken 18 UTC til 20. klokken 20 UTC
Vind 3 kt fra skiftende retning

TAF: LEPA 200500Z 2006/2106 VRB03KT 9999 FEW020 TX29/2012Z TN19/2006Z BECMG 2009/2011 22010KT BECMG 2018/2020 VRB03KT

Værobservasjoner og værvarsel for over 4000 flyplasser (METAR- og TAF-rapporter).

Tilgjengelige stasjoner er representert av de røde og gule prikkene på kartet.

Hold musepekeren over prikken for å se navnet på stasjonen.

Klikk så for å se værobservasjoner og -varsler.

For å forandre kartet kan du klikke på den grønne knappen med svart kryss for å zoome inn, på den grønne knappen med strek for å zoome ut, eller på de grønne pilene for å se tilstøtende kart.


METAR-TAF: